Time;durP1;ratioP1;P1;durP2;ratioP2;P2;SDS_P1;SDS_P2;PMS_P1;PMS_P2;Temp;Humidity;BMP_temperature;BMP_pressure;BME280_temperature;BME280_humidity;BME280_pressure;Samples;Min_cycle;Max_cycle;Signal;HPM_P1;HPM_P2
2024/02/04 00:02:13;;;;;;;;;3.00;2.00;;;;;;;;6185161;22;45252;-80
2024/02/04 00:04:39;;;;;;;;;2.00;2.00;;;;;;;;6188012;22;44714;-80
2024/02/04 00:07:04;;;;;;;;;4.00;2.33;;;;;;;;6290089;22;45254;-80
2024/02/04 00:09:30;;;;;;;;;3.00;3.00;;;;;;;;6290504;22;47372;-80
2024/02/04 00:11:55;;;;;;;;;2.67;2.67;;;;;;;;6184485;23;45507;-80
2024/02/04 00:14:20;;;;;;;;;2.33;2.33;;;;;;;;6292918;22;44854;-79
2024/02/04 00:16:52;;;;;;;;;1.50;1.50;;;;;;;;6291252;22;45351;-80
2024/02/04 00:19:17;;;;;;;;;2.00;2.00;;;;;;;;6184559;23;46362;-80
2024/02/04 00:21:42;;;;;;;;;2.25;2.25;;;;;;;;6183716;23;45287;-79
2024/02/04 00:24:07;;;;;;;;;2.67;2.00;;;;;;;;6291548;22;45224;-80
2024/02/04 00:26:33;;;;;;;;;2.67;2.67;;;;;;;;6184810;23;44843;-80
2024/02/04 00:28:58;;;;;;;;;2.00;2.00;;;;;;;;6287461;22;47275;-81
2024/02/04 00:31:23;;;;;;;;;3.00;3.00;;;;;;;;6182339;23;45384;-81
2024/02/04 00:33:48;;;;;;;;;3.00;3.00;;;;;;;;6184944;22;45272;-81
2024/02/04 00:36:14;;;;;;;;;5.33;4.67;;;;;;;;6184679;23;45615;-80
2024/02/04 00:38:39;;;;;;;;;5.00;3.33;;;;;;;;6286796;22;47172;-81
2024/02/04 00:41:05;;;;;;;;;3.00;3.00;;;;;;;;6288323;22;45390;-81
2024/02/04 00:43:30;;;;;;;;;3.75;1.75;;;;;;;;6186797;23;45612;-80
2024/02/04 00:45:56;;;;;;;;;3.00;3.00;;;;;;;;6184888;23;45451;-80
2024/02/04 00:48:21;;;;;;;;;1.33;1.33;;;;;;;;6288943;22;47250;-80
2024/02/04 00:50:47;;;;;;;;;3.00;3.00;;;;;;;;6187030;23;44889;-81
2024/02/04 00:53:12;;;;;;;;;2.00;1.00;;;;;;;;6187086;23;45268;-80
2024/02/04 00:55:37;;;;;;;;;1.00;1.00;;;;;;;;6291893;22;44871;-81
2024/02/04 00:58:03;;;;;;;;;2.00;2.00;;;;;;;;6288329;22;46629;-81
2024/02/04 01:00:28;;;;;;;;;2.50;2.50;;;;;;;;6183902;23;45771;-81
2024/02/04 01:02:53;;;;;;;;;1.50;1.50;;;;;;;;6189097;22;45382;-80
2024/02/04 01:05:18;;;;;;;;;1.50;1.50;;;;;;;;6185476;23;45378;-81
2024/02/04 01:07:44;;;;;;;;;0.50;0.50;;;;;;;;6186224;22;45753;-81
2024/02/04 01:10:10;;;;;;;;;1.50;1.00;;;;;;;;6291914;22;44911;-81
2024/02/04 01:12:35;;;;;;;;;2.00;2.00;;;;;;;;6184255;22;45377;-81
2024/02/04 01:15:01;;;;;;;;;1.00;1.00;;;;;;;;6290724;22;45260;-80
2024/02/04 01:17:26;;;;;;;;;1.75;1.25;;;;;;;;6287854;22;48069;-81
2024/02/04 01:19:52;;;;;;;;;2.25;1.00;;;;;;;;6288173;22;45347;-81
2024/02/04 01:22:17;;;;;;;;;1.25;1.25;;;;;;;;6184152;23;45319;-80
2024/02/04 01:24:42;;;;;;;;;3.00;1.25;;;;;;;;6289550;22;45132;-81
2024/02/04 01:27:07;;;;;;;;;3.00;3.00;;;;;;;;6183323;23;45417;-80
2024/02/04 01:29:32;;;;;;;;;0.00;0.00;;;;;;;;6287781;22;45262;-80
2024/02/04 01:31:58;;;;;;;;;2.00;2.00;;;;;;;;6287439;22;45389;-80
2024/02/04 01:34:23;;;;;;;;;0.75;0.75;;;;;;;;6182760;23;44806;-80
2024/02/04 01:36:48;;;;;;;;;3.00;2.00;;;;;;;;6287509;22;46869;-79
2024/02/04 01:39:14;;;;;;;;;4.50;2.00;;;;;;;;6287730;22;45330;-80
2024/02/04 01:41:39;;;;;;;;;3.50;2.00;;;;;;;;6288376;22;45290;-79
2024/02/04 01:44:05;;;;;;;;;3.67;1.00;;;;;;;;6185139;23;45246;-80
2024/02/04 01:46:30;;;;;;;;;2.00;2.00;;;;;;;;6185757;23;46139;-79
2024/02/04 01:48:55;;;;;;;;;1.00;1.00;;;;;;;;6288072;22;45530;-80
2024/02/04 01:51:21;;;;;;;;;1.75;0.50;;;;;;;;6290717;22;45840;-79
2024/02/04 01:53:48;;;;;;;;;1.00;1.00;;;;;;;;6186371;23;44917;-80
2024/02/04 01:56:13;;;;;;;;;1.00;1.00;;;;;;;;6289426;22;47578;-80
2024/02/04 01:58:39;;;;;;;;;1.50;1.50;;;;;;;;6289524;22;45094;-80
2024/02/04 02:01:04;;;;;;;;;1.25;1.25;;;;;;;;6283719;22;45313;-79
2024/02/04 02:03:31;;;;;;;;;2.00;2.00;;;;;;;;6178221;22;45395;-79
2024/02/04 02:05:56;;;;;;;;;1.00;1.00;;;;;;;;6175516;23;48437;-79
2024/02/04 02:08:22;;;;;;;;;0.00;0.00;;;;;;;;6175352;23;45373;-80
2024/02/04 02:10:48;;;;;;;;;2.00;2.00;;;;;;;;6175675;23;45396;-81
2024/02/04 02:13:50;;;;;;;;;1.00;1.00;;;;;;;;6279728;22;45327;-79
2024/02/04 02:16:19;;;;;;;;;0.00;0.00;;;;;;;;6279116;22;47999;-79
2024/02/04 02:18:48;;;;;;;;;1.75;1.75;;;;;;;;6175228;23;45354;-79
2024/02/04 02:21:25;;;;;;;;;1.00;0.75;;;;;;;;6278660;22;45356;-79
2024/02/04 02:24:03;;;;;;;;;0.00;0.00;;;;;;;;6279797;22;45476;-79
2024/02/04 02:26:30;;;;;;;;;0.00;0.00;;;;;;;;6176771;23;45327;-79
2024/02/04 02:28:55;;;;;;;;;1.00;1.00;;;;;;;;6175624;23;45390;-79
2024/02/04 02:31:20;;;;;;;;;3.25;1.00;;;;;;;;6281134;22;45583;-79
2024/02/04 02:33:45;;;;;;;;;1.00;1.00;;;;;;;;6280777;22;45505;-79
2024/02/04 02:36:17;;;;;;;;;1.50;1.00;;;;;;;;6176445;23;45496;-78
2024/02/04 02:38:57;;;;;;;;;1.00;1.00;;;;;;;;6279209;22;45907;-78
2024/02/04 02:41:23;;;;;;;;;1.50;0.00;;;;;;;;6175874;23;45367;-81
2024/02/04 02:43:51;;;;;;;;;1.00;1.00;;;;;;;;6279965;22;45426;-80
2024/02/04 02:46:16;;;;;;;;;2.00;2.00;;;;;;;;6175414;23;45442;-79
2024/02/04 02:48:42;;;;;;;;;1.00;1.00;;;;;;;;6175526;23;45333;-79
2024/02/04 02:54:11;;;;;;;;;1.00;1.00;;;;;;;;6174922;23;45474;-80
2024/02/04 02:56:36;;;;;;;;;1.00;1.00;;;;;;;;6175175;23;45390;-80
2024/02/04 02:59:02;;;;;;;;;1.50;1.50;;;;;;;;6175146;23;45351;-80
2024/02/04 03:01:28;;;;;;;;;2.00;0.75;;;;;;;;6279044;22;45602;-78
2024/02/04 03:03:53;;;;;;;;;1.00;1.00;;;;;;;;6177200;22;45354;-79
2024/02/04 03:06:19;;;;;;;;;0.00;0.00;;;;;;;;6176046;23;45327;-79
2024/02/04 03:08:44;;;;;;;;;1.00;1.00;;;;;;;;6278199;22;45410;-80
2024/02/04 03:11:09;;;;;;;;;1.67;1.00;;;;;;;;6279300;22;45404;-78
2024/02/04 03:13:37;;;;;;;;;2.00;1.00;;;;;;;;6173980;23;45280;-79
2024/02/04 03:16:03;;;;;;;;;1.00;1.00;;;;;;;;6278674;22;47116;-78
2024/02/04 03:18:28;;;;;;;;;2.00;1.00;;;;;;;;6278714;22;45462;-78
2024/02/04 03:20:53;;;;;;;;;2.00;2.00;;;;;;;;6175088;23;45438;-79
2024/02/04 03:23:19;;;;;;;;;0.50;0.50;;;;;;;;6174631;23;45338;-79
2024/02/04 03:25:44;;;;;;;;;1.00;1.00;;;;;;;;6279182;22;47228;-78
2024/02/04 03:28:09;;;;;;;;;1.00;1.00;;;;;;;;6279471;22;45470;-79
2024/02/04 03:30:35;;;;;;;;;1.00;1.00;;;;;;;;6177617;23;45406;-80
2024/02/04 03:33:07;;;;;;;;;1.50;1.50;;;;;;;;6176693;23;45384;-80
2024/02/04 03:35:36;;;;;;;;;1.50;1.50;;;;;;;;6175247;23;45541;-80
2024/02/04 03:38:01;;;;;;;;;0.75;0.75;;;;;;;;6177289;22;45604;-80
2024/02/04 03:40:26;;;;;;;;;1.75;0.75;;;;;;;;6176030;23;45368;-79
2024/02/04 03:42:51;;;;;;;;;1.00;1.00;;;;;;;;6176485;23;45333;-80
2024/02/04 03:45:16;;;;;;;;;1.00;1.00;;;;;;;;6280164;22;47104;-79
2024/02/04 03:47:42;;;;;;;;;1.00;1.00;;;;;;;;6176331;23;45251;-79
2024/02/04 03:50:07;;;;;;;;;0.75;0.75;;;;;;;;6175376;23;45756;-79
2024/02/04 03:52:32;;;;;;;;;0.75;0.75;;;;;;;;6280200;22;45264;-78
2024/02/04 03:54:59;;;;;;;;;1.00;1.00;;;;;;;;6282578;22;47166;-79
2024/02/04 03:57:24;;;;;;;;;2.00;0.75;;;;;;;;6175261;22;45338;-80
2024/02/04 03:59:49;;;;;;;;;1.00;1.00;;;;;;;;6174687;23;45301;-79
2024/02/04 04:02:15;;;;;;;;;1.00;1.00;;;;;;;;6174168;23;45318;-79
2024/02/04 04:04:41;;;;;;;;;1.25;1.00;;;;;;;;6277124;22;47261;-78
2024/02/04 04:07:06;;;;;;;;;2.00;1.75;;;;;;;;6174132;23;45338;-79
2024/02/04 04:09:32;;;;;;;;;2.00;0.67;;;;;;;;6174366;23;45373;-79
2024/02/04 04:11:57;;;;;;;;;1.50;1.00;;;;;;;;6176313;23;45405;-80
2024/02/04 04:14:22;;;;;;;;;1.00;1.00;;;;;;;;6279256;22;48268;-78
2024/02/04 04:16:48;;;;;;;;;1.00;1.00;;;;;;;;6174236;23;45374;-79
2024/02/04 04:19:13;;;;;;;;;2.75;0.00;;;;;;;;6174229;22;45532;-79
2024/02/04 04:21:40;;;;;;;;;0.67;0.67;;;;;;;;6172733;23;45447;-79
2024/02/04 04:24:05;;;;;;;;;1.00;0.33;;;;;;;;6278365;22;47341;-78
2024/02/04 04:26:31;;;;;;;;;2.33;1.00;;;;;;;;6280881;22;45479;-80
2024/02/04 04:28:56;;;;;;;;;0.33;0.33;;;;;;;;6178680;23;45330;-80
2024/02/04 04:31:21;;;;;;;;;1.00;1.00;;;;;;;;6281289;22;45288;-81
2024/02/04 04:33:47;;;;;;;;;2.75;0.00;;;;;;;;6283731;22;47227;-80
2024/02/04 04:36:12;;;;;;;;;0.75;0.00;;;;;;;;6179131;23;45394;-81
2024/02/04 04:38:37;;;;;;;;;0.75;0.75;;;;;;;;6284066;22;45359;-80
2024/02/04 04:41:02;;;;;;;;;0.00;0.00;;;;;;;;6283501;22;45690;-81
2024/02/04 04:43:28;;;;;;;;;1.00;1.00;;;;;;;;6284256;22;46982;-81
2024/02/04 04:45:53;;;;;;;;;0.00;0.00;;;;;;;;6285429;22;45312;-81
2024/02/04 04:48:18;;;;;;;;;0.00;0.00;;;;;;;;6181097;23;45324;-81
2024/02/04 04:50:43;;;;;;;;;4.00;0.67;;;;;;;;6285459;22;45212;-81
2024/02/04 04:53:10;;;;;;;;;1.00;0.00;;;;;;;;6177892;23;45988;-81
2024/02/04 04:55:35;;;;;;;;;0.50;0.50;;;;;;;;6285186;22;44847;-81
2024/02/04 04:58:00;;;;;;;;;0.67;0.67;;;;;;;;6286574;22;45390;-81
2024/02/04 05:00:26;;;;;;;;;2.00;1.00;;;;;;;;6284807;22;44918;-80
2024/02/04 05:02:51;;;;;;;;;0.00;0.00;;;;;;;;6178004;23;45422;-81
2024/02/04 05:05:16;;;;;;;;;1.33;1.33;;;;;;;;6182766;22;45353;-81
2024/02/04 05:07:41;;;;;;;;;0.00;0.00;;;;;;;;6283793;22;45330;-81
2024/02/04 05:10:07;;;;;;;;;3.00;1.00;;;;;;;;6282936;22;45393;-81
2024/02/04 05:12:33;;;;;;;;;1.00;1.00;;;;;;;;6284796;22;47149;-81
2024/02/04 05:15:00;;;;;;;;;0.00;0.00;;;;;;;;6284688;22;46023;-81
2024/02/04 05:17:26;;;;;;;;;0.33;0.33;;;;;;;;6180112;23;45466;-81
2024/02/04 05:19:51;;;;;;;;;1.50;0.50;;;;;;;;6284661;22;45525;-81
2024/02/04 05:22:16;;;;;;;;;0.00;0.00;;;;;;;;6284201;22;47212;-81
2024/02/04 05:24:42;;;;;;;;;0.50;0.50;;;;;;;;6284084;22;45338;-81
2024/02/04 05:27:07;;;;;;;;;0.00;0.00;;;;;;;;6179021;22;44761;-81
2024/02/04 05:29:32;;;;;;;;;0.00;0.00;;;;;;;;6182614;22;45248;-81
2024/02/04 05:31:58;;;;;;;;;1.00;1.00;;;;;;;;6178225;23;45358;-81
2024/02/04 05:34:23;;;;;;;;;0.00;0.00;;;;;;;;6178728;23;45259;-81
2024/02/04 05:36:48;;;;;;;;;1.00;0.00;;;;;;;;6177615;23;45411;-81
2024/02/04 05:39:16;;;;;;;;;1.00;0.00;;;;;;;;6283639;22;45374;-81
2024/02/04 05:41:42;;;;;;;;;0.00;0.00;;;;;;;;6283380;22;47292;-81
2024/02/04 05:44:10;;;;;;;;;0.00;0.00;;;;;;;;6281602;22;45432;-81
2024/02/04 05:46:38;;;;;;;;;0.00;0.00;;;;;;;;6284491;22;45497;-81
2024/02/04 05:49:04;;;;;;;;;0.25;0.25;;;;;;;;6182240;22;45228;-81
2024/02/04 05:51:32;;;;;;;;;3.00;1.00;;;;;;;;6284538;22;47267;-81
2024/02/04 05:53:57;;;;;;;;;0.00;0.00;;;;;;;;6177993;23;45431;-82
2024/02/04 05:56:22;;;;;;;;;0.00;0.00;;;;;;;;6281677;22;45370;-81
2024/02/04 05:58:47;;;;;;;;;0.00;0.00;;;;;;;;6178194;23;45435;-81
2024/02/04 06:01:13;;;;;;;;;1.25;0.00;;;;;;;;6179136;23;45341;-81
2024/02/04 06:03:38;;;;;;;;;0.00;0.00;;;;;;;;6181310;22;45448;-81
2024/02/04 06:06:03;;;;;;;;;0.00;0.00;;;;;;;;6285409;22;44817;-81
2024/02/04 06:08:29;;;;;;;;;0.00;0.00;;;;;;;;6284860;22;45465;-81
2024/02/04 06:10:54;;;;;;;;;0.00;0.00;;;;;;;;6285314;22;48036;-81
2024/02/04 06:13:20;;;;;;;;;0.00;0.00;;;;;;;;6180240;22;44774;-81
2024/02/04 06:15:45;;;;;;;;;0.00;0.00;;;;;;;;6282234;22;45370;-81
2024/02/04 06:18:17;;;;;;;;;1.00;1.00;;;;;;;;6179243;23;45354;-81
2024/02/04 06:20:42;;;;;;;;;1.50;1.50;;;;;;;;6179054;22;45496;-81
2024/02/04 06:23:08;;;;;;;;;0.00;0.00;;;;;;;;6181328;22;44826;-81
2024/02/04 06:25:33;;;;;;;;;0.00;0.00;;;;;;;;6179626;23;45331;-81
2024/02/04 06:27:58;;;;;;;;;0.50;0.50;;;;;;;;6181572;23;45365;-81
2024/02/04 06:30:23;;;;;;;;;1.00;0.00;;;;;;;;6287086;22;47360;-81
2024/02/04 06:32:51;;;;;;;;;0.00;0.00;;;;;;;;6284578;22;45342;-81
2024/02/04 06:35:17;;;;;;;;;0.00;0.00;;;;;;;;6284672;22;45378;-82
2024/02/04 06:37:45;;;;;;;;;0.00;0.00;;;;;;;;6179463;23;45283;-81
2024/02/04 06:40:10;;;;;;;;;0.00;0.00;;;;;;;;6178256;23;46172;-81
2024/02/04 06:42:35;;;;;;;;;0.00;0.00;;;;;;;;6284124;22;45292;-81
2024/02/04 06:45:01;;;;;;;;;0.00;0.00;;;;;;;;6180541;23;45651;-81
2024/02/04 06:47:26;;;;;;;;;0.00;0.00;;;;;;;;6285374;22;44862;-81
2024/02/04 06:49:51;;;;;;;;;0.00;0.00;;;;;;;;6179506;23;45593;-81
2024/02/04 06:52:16;;;;;;;;;2.00;1.00;;;;;;;;6180300;23;45350;-81
2024/02/04 06:54:41;;;;;;;;;0.00;0.00;;;;;;;;6283274;22;45381;-81
2024/02/04 06:57:07;;;;;;;;;0.67;0.67;;;;;;;;6179222;23;45373;-81
2024/02/04 06:59:32;;;;;;;;;0.00;0.00;;;;;;;;6180074;23;45383;-81
2024/02/04 07:01:57;;;;;;;;;0.00;0.00;;;;;;;;6181079;23;45404;-81
2024/02/04 07:04:24;;;;;;;;;2.00;0.00;;;;;;;;6283783;22;45679;-81
2024/02/04 07:06:49;;;;;;;;;0.00;0.00;;;;;;;;6283889;22;45397;-81
2024/02/04 07:09:14;;;;;;;;;0.00;0.00;;;;;;;;6180773;23;46213;-81
2024/02/04 07:11:46;;;;;;;;;0.00;0.00;;;;;;;;6284049;22;45422;-81
2024/02/04 07:14:11;;;;;;;;;1.00;1.00;;;;;;;;6178419;23;45356;-81
2024/02/04 07:16:36;;;;;;;;;0.00;0.00;;;;;;;;6180059;23;44798;-81
2024/02/04 07:19:02;;;;;;;;;0.75;0.00;;;;;;;;6284217;22;47167;-80
2024/02/04 07:21:27;;;;;;;;;0.75;0.75;;;;;;;;6284018;22;45646;-80
2024/02/04 07:23:53;;;;;;;;;0.00;0.00;;;;;;;;6283434;22;45351;-81
2024/02/04 07:26:18;;;;;;;;;2.00;0.33;;;;;;;;6179834;23;45433;-81
2024/02/04 07:28:43;;;;;;;;;0.00;0.00;;;;;;;;6284128;22;47053;-81
2024/02/04 07:31:09;;;;;;;;;0.00;0.00;;;;;;;;6287652;22;45651;-81
2024/02/04 07:33:34;;;;;;;;;0.00;0.00;;;;;;;;6286057;22;45598;-81
2024/02/04 07:35:59;;;;;;;;;0.25;0.25;;;;;;;;6284254;22;45450;-81
2024/02/04 07:38:24;;;;;;;;;3.00;1.00;;;;;;;;6179637;23;45469;-81
2024/02/04 07:40:49;;;;;;;;;0.33;0.33;;;;;;;;6180921;23;45292;-81
2024/02/04 07:43:15;;;;;;;;;0.00;0.00;;;;;;;;6283263;22;45508;-81
2024/02/04 07:45:40;;;;;;;;;0.00;0.00;;;;;;;;6177981;23;45875;-81
2024/02/04 07:48:06;;;;;;;;;0.33;0.33;;;;;;;;6179616;22;45378;-81
2024/02/04 07:50:31;;;;;;;;;0.75;0.00;;;;;;;;6180581;23;45408;-81
2024/02/04 07:52:56;;;;;;;;;0.00;0.00;;;;;;;;6285826;22;45238;-81
2024/02/04 07:55:22;;;;;;;;;1.00;0.00;;;;;;;;6181422;23;45327;-82
2024/02/04 07:57:47;;;;;;;;;0.00;0.00;;;;;;;;6178294;23;45433;-82
2024/02/04 08:00:49;;;;;;;;;1.00;1.00;;;;;;;;6282773;22;45593;-81
2024/02/04 08:03:15;;;;;;;;;0.00;0.00;;;;;;;;6283385;22;45266;-81
2024/02/04 08:05:40;;;;;;;;;0.00;0.00;;;;;;;;6284213;22;45372;-81
2024/02/04 08:08:05;;;;;;;;;1.00;1.00;;;;;;;;6283164;22;47078;-81
2024/02/04 08:10:31;;;;;;;;;0.00;0.00;;;;;;;;6282421;22;45398;-81
2024/02/04 08:12:56;;;;;;;;;0.25;0.25;;;;;;;;6178755;23;45315;-81
2024/02/04 08:15:21;;;;;;;;;0.00;0.00;;;;;;;;6284764;22;45825;-81
2024/02/04 08:17:46;;;;;;;;;2.00;1.00;;;;;;;;6177908;23;46319;-81
2024/02/04 08:20:12;;;;;;;;;1.00;1.00;;;;;;;;6179292;23;45304;-81
2024/02/04 08:22:37;;;;;;;;;0.00;0.00;;;;;;;;6283272;22;45805;-81
2024/02/04 08:25:03;;;;;;;;;0.00;0.00;;;;;;;;6180106;22;45292;-81
2024/02/04 08:27:29;;;;;;;;;0.25;0.25;;;;;;;;6178008;23;45183;-81
2024/02/04 08:29:55;;;;;;;;;1.00;1.00;;;;;;;;6180263;23;44804;-82
2024/02/04 08:32:20;;;;;;;;;0.00;0.00;;;;;;;;6286053;22;45381;-81
2024/02/04 08:34:45;;;;;;;;;1.00;1.00;;;;;;;;6284234;22;45277;-80
2024/02/04 08:37:17;;;;;;;;;0.00;0.00;;;;;;;;6182297;23;45134;-80
2024/02/04 08:39:42;;;;;;;;;0.75;0.75;;;;;;;;6182731;23;44845;-81
2024/02/04 08:42:08;;;;;;;;;0.00;0.00;;;;;;;;6286307;22;44914;-80
2024/02/04 08:44:33;;;;;;;;;0.00;0.00;;;;;;;;6286966;22;45382;-80
2024/02/04 08:46:58;;;;;;;;;0.33;0.33;;;;;;;;6182116;23;45336;-80
2024/02/04 08:49:25;;;;;;;;;1.00;1.00;;;;;;;;6182471;23;45299;-80
2024/02/04 08:51:50;;;;;;;;;0.25;0.00;;;;;;;;6181230;23;45363;-81
2024/02/04 08:54:17;;;;;;;;;1.33;0.00;;;;;;;;6182431;23;45302;-80
2024/02/04 08:56:42;;;;;;;;;1.00;1.00;;;;;;;;6287275;22;47296;-80
2024/02/04 08:59:07;;;;;;;;;1.00;0.00;;;;;;;;6181068;23;45376;-80
2024/02/04 09:01:35;;;;;;;;;0.67;0.67;;;;;;;;6182452;23;44819;-79
2024/02/04 09:04:00;;;;;;;;;0.00;0.00;;;;;;;;6285890;22;45498;-80
2024/02/04 09:06:25;;;;;;;;;1.00;1.00;;;;;;;;6181681;23;45967;-79
2024/02/04 09:08:50;;;;;;;;;0.00;0.00;;;;;;;;6182232;23;45728;-79
2024/02/04 09:11:18;;;;;;;;;0.00;0.00;;;;;;;;6181542;23;44819;-79
2024/02/04 09:13:44;;;;;;;;;0.75;0.75;;;;;;;;6181836;23;45312;-80
2024/02/04 09:16:09;;;;;;;;;0.00;0.00;;;;;;;;6285268;22;46610;-80
2024/02/04 09:18:35;;;;;;;;;0.00;0.00;;;;;;;;6181485;23;44885;-80
2024/02/04 09:21:01;;;;;;;;;0.00;0.00;;;;;;;;6286353;22;44742;-80
2024/02/04 09:23:26;;;;;;;;;0.75;0.75;;;;;;;;6183303;22;45339;-80
2024/02/04 09:25:51;;;;;;;;;0.00;0.00;;;;;;;;6286207;22;47425;-80
2024/02/04 09:28:16;;;;;;;;;0.00;0.00;;;;;;;;6287371;22;44848;-80
2024/02/04 09:30:42;;;;;;;;;1.00;1.00;;;;;;;;6181100;23;44835;-80
2024/02/04 09:33:08;;;;;;;;;0.00;0.00;;;;;;;;6286469;22;45290;-79
2024/02/04 09:35:33;;;;;;;;;0.00;0.00;;;;;;;;6180757;22;45998;-80
2024/02/04 09:38:06;;;;;;;;;0.00;0.00;;;;;;;;6181950;22;44755;-80
2024/02/04 09:40:32;;;;;;;;;1.33;0.00;;;;;;;;6287171;22;44866;-80
2024/02/04 09:42:58;;;;;;;;;0.33;0.33;;;;;;;;6287463;22;44797;-80
2024/02/04 09:45:23;;;;;;;;;0.00;0.00;;;;;;;;6182819;23;45369;-80
2024/02/04 09:47:49;;;;;;;;;0.75;0.75;;;;;;;;6289522;22;44874;-80
2024/02/04 09:50:15;;;;;;;;;0.00;0.00;;;;;;;;6288486;22;45326;-80
2024/02/04 09:52:43;;;;;;;;;0.00;0.00;;;;;;;;6287837;22;44864;-79
2024/02/04 09:55:10;;;;;;;;;0.00;0.00;;;;;;;;6181129;23;45288;-81
2024/02/04 09:57:35;;;;;;;;;0.00;0.00;;;;;;;;6284976;22;44794;-79
2024/02/04 10:00:08;;;;;;;;;0.00;0.00;;;;;;;;6286473;22;45348;-79
2024/02/04 10:02:34;;;;;;;;;0.00;0.00;;;;;;;;6184289;22;45279;-79
2024/02/04 10:04:59;;;;;;;;;0.25;0.25;;;;;;;;6187291;22;45295;-80
2024/02/04 10:07:24;;;;;;;;;0.00;0.00;;;;;;;;6289105;22;44763;-79
2024/02/04 10:09:49;;;;;;;;;1.00;0.00;;;;;;;;6184692;23;45235;-79
2024/02/04 10:12:15;;;;;;;;;0.00;0.00;;;;;;;;6185525;23;45248;-80
2024/02/04 10:14:40;;;;;;;;;0.00;0.00;;;;;;;;6288275;22;47093;-79
2024/02/04 10:17:06;;;;;;;;;0.00;0.00;;;;;;;;6183073;23;45352;-80
2024/02/04 10:19:31;;;;;;;;;0.00;0.00;;;;;;;;6183558;23;44827;-80
2024/02/04 10:22:00;;;;;;;;;0.00;0.00;;;;;;;;6287614;22;45317;-80
2024/02/04 10:24:26;;;;;;;;;0.00;0.00;;;;;;;;6289415;22;47383;-80
2024/02/04 10:26:52;;;;;;;;;1.00;0.50;;;;;;;;6186981;23;44758;-80
2024/02/04 10:29:18;;;;;;;;;2.00;0.00;;;;;;;;6287941;22;45321;-80
2024/02/04 10:31:43;;;;;;;;;0.00;0.00;;;;;;;;6184387;23;45324;-80
2024/02/04 10:34:08;;;;;;;;;0.00;0.00;;;;;;;;6182513;23;45037;-80
2024/02/04 10:36:33;;;;;;;;;0.00;0.00;;;;;;;;6184845;23;45366;-80
2024/02/04 10:38:59;;;;;;;;;0.00;0.00;;;;;;;;6185530;23;45319;-80
2024/02/04 10:41:25;;;;;;;;;0.00;0.00;;;;;;;;6184776;23;45595;-80
2024/02/04 10:43:53;;;;;;;;;0.00;0.00;;;;;;;;6184463;23;45394;-80
2024/02/04 10:46:19;;;;;;;;;0.25;0.25;;;;;;;;6287864;22;44831;-80
2024/02/04 10:48:48;;;;;;;;;0.00;0.00;;;;;;;;6289040;22;45409;-80
2024/02/04 10:51:14;;;;;;;;;0.00;0.00;;;;;;;;6185181;22;45437;-79
2024/02/04 10:53:46;;;;;;;;;0.00;0.00;;;;;;;;6287577;22;47835;-79
2024/02/04 10:56:17;;;;;;;;;0.00;0.00;;;;;;;;6287809;22;45182;-80
2024/02/04 10:58:44;;;;;;;;;0.00;0.00;;;;;;;;6288139;22;45412;-80
2024/02/04 11:01:10;;;;;;;;;0.00;0.00;;;;;;;;6288477;22;45635;-80
2024/02/04 11:03:37;;;;;;;;;0.00;0.00;;;;;;;;6183484;22;45423;-81
2024/02/04 11:06:03;;;;;;;;;0.00;0.00;;;;;;;;6287559;22;45334;-80
2024/02/04 11:08:29;;;;;;;;;0.50;0.50;;;;;;;;6183582;23;45501;-81
2024/02/04 11:10:54;;;;;;;;;0.00;0.00;;;;;;;;6288574;22;45322;-80
2024/02/04 11:13:22;;;;;;;;;0.00;0.00;;;;;;;;6183657;23;45371;-80
2024/02/04 11:15:47;;;;;;;;;2.25;1.50;;;;;;;;6183775;23;45350;-80
2024/02/04 11:18:36;;;;;;;;;0.00;0.00;;;;;;;;6289782;22;44803;-80
2024/02/04 11:21:16;;;;;;;;;0.00;0.00;;;;;;;;6186153;22;45455;-81
2024/02/04 11:23:46;;;;;;;;;0.00;0.00;;;;;;;;6183892;23;45157;-80
2024/02/04 11:26:13;;;;;;;;;0.00;0.00;;;;;;;;6288039;22;45381;-81
2024/02/04 11:28:39;;;;;;;;;0.00;0.00;;;;;;;;6183478;23;45347;-81
2024/02/04 11:31:04;;;;;;;;;0.00;0.00;;;;;;;;6183923;23;45390;-80
2024/02/04 11:33:31;;;;;;;;;0.50;0.00;;;;;;;;6183705;23;45300;-80
2024/02/04 11:36:06;;;;;;;;;0.00;0.00;;;;;;;;6184309;23;45429;-79
2024/02/04 11:38:35;;;;;;;;;0.00;0.00;;;;;;;;6288672;22;45433;-79
2024/02/04 11:41:02;;;;;;;;;0.00;0.00;;;;;;;;6185977;23;44842;-80
2024/02/04 11:43:28;;;;;;;;;1.00;1.00;;;;;;;;6184845;23;46652;-79
2024/02/04 11:45:54;;;;;;;;;0.00;0.00;;;;;;;;6288451;22;44803;-79
2024/02/04 11:48:20;;;;;;;;;0.00;0.00;;;;;;;;6183758;23;45222;-79
2024/02/04 11:50:52;;;;;;;;;0.00;0.00;;;;;;;;6289224;22;44855;-80
2024/02/04 11:53:17;;;;;;;;;0.00;0.00;;;;;;;;6288990;22;47928;-79
2024/02/04 11:55:44;;;;;;;;;0.00;0.00;;;;;;;;6289591;22;45473;-79
2024/02/04 11:58:10;;;;;;;;;0.00;0.00;;;;;;;;6184958;23;45320;-79
2024/02/04 12:00:36;;;;;;;;;0.00;0.00;;;;;;;;6289507;22;44860;-79
2024/02/04 12:03:05;;;;;;;;;0.00;0.00;;;;;;;;6183059;23;45296;-80
2024/02/04 12:05:34;;;;;;;;;0.00;0.00;;;;;;;;6186535;22;45364;-79
2024/02/04 12:08:01;;;;;;;;;0.00;0.00;;;;;;;;6279359;22;45437;-80
2024/02/04 12:10:26;;;;;;;;;1.00;1.00;;;;;;;;6174407;23;45477;-80
2024/02/04 12:12:52;;;;;;;;;0.00;0.00;;;;;;;;6174228;23;45413;-80
2024/02/04 12:15:17;;;;;;;;;0.00;0.00;;;;;;;;6173911;23;45444;-80
2024/02/04 12:17:43;;;;;;;;;1.00;0.00;;;;;;;;6277790;22;45461;-80
2024/02/04 12:20:08;;;;;;;;;0.00;0.00;;;;;;;;6173272;23;45346;-79
2024/02/04 12:22:33;;;;;;;;;0.00;0.00;;;;;;;;6277238;22;47583;-79
2024/02/04 12:24:59;;;;;;;;;0.00;0.00;;;;;;;;6276700;22;45533;-79
2024/02/04 12:27:26;;;;;;;;;0.00;0.00;;;;;;;;6277529;22;45375;-79
2024/02/04 12:29:52;;;;;;;;;0.25;0.25;;;;;;;;6174939;23;45438;-79
2024/02/04 12:32:19;;;;;;;;;0.00;0.00;;;;;;;;6174199;23;45999;-80
2024/02/04 12:34:47;;;;;;;;;0.00;0.00;;;;;;;;6279606;22;44941;-80
2024/02/04 12:37:13;;;;;;;;;0.25;0.25;;;;;;;;6174079;23;45399;-79
2024/02/04 12:39:38;;;;;;;;;0.00;0.00;;;;;;;;6280741;22;45378;-80
2024/02/04 12:42:05;;;;;;;;;0.00;0.00;;;;;;;;6279062;22;48082;-79
2024/02/04 12:44:30;;;;;;;;;1.75;1.50;;;;;;;;6279363;22;45406;-79
2024/02/04 12:46:56;;;;;;;;;0.00;0.00;;;;;;;;6175901;23;45372;-79
2024/02/04 12:49:21;;;;;;;;;0.25;0.25;;;;;;;;6176409;23;45705;-80
2024/02/04 12:51:47;;;;;;;;;1.50;1.00;;;;;;;;6176395;23;47298;-81
2024/02/04 12:54:13;;;;;;;;;1.00;1.00;;;;;;;;6280980;22;45363;-80
2024/02/04 12:56:46;;;;;;;;;0.00;0.00;;;;;;;;6280571;22;45397;-79
2024/02/04 12:59:11;;;;;;;;;0.75;0.00;;;;;;;;6176357;23;45363;-79
2024/02/04 13:01:38;;;;;;;;;0.00;0.00;;;;;;;;6280660;22;47552;-79
2024/02/04 13:04:03;;;;;;;;;0.00;0.00;;;;;;;;6178924;22;45326;-80
2024/02/04 13:06:28;;;;;;;;;0.00;0.00;;;;;;;;6280127;22;45556;-79
2024/02/04 13:08:57;;;;;;;;;1.00;1.00;;;;;;;;6280643;22;45321;-79
2024/02/04 13:11:22;;;;;;;;;0.25;0.25;;;;;;;;6278255;22;45639;-79
2024/02/04 13:17:18;;;;;;;;;1.00;1.00;;;;;;;;6176449;23;45481;-79
2024/02/04 13:19:44;;;;;;;;;0.00;0.00;;;;;;;;6281639;22;45430;-79
2024/02/04 13:22:17;;;;;;;;;1.00;1.00;;;;;;;;6273653;22;47505;-80
2024/02/04 13:24:42;;;;;;;;;1.00;1.00;;;;;;;;6176004;23;45516;-79
2024/02/04 13:27:08;;;;;;;;;1.00;1.00;;;;;;;;6176335;23;45323;-79
2024/02/04 13:29:34;;;;;;;;;0.00;0.00;;;;;;;;6176541;22;45327;-79
2024/02/04 13:31:59;;;;;;;;;0.00;0.00;;;;;;;;6281247;22;47058;-81
2024/02/04 13:34:25;;;;;;;;;1.00;1.00;;;;;;;;6279358;22;45289;-79
2024/02/04 13:36:51;;;;;;;;;0.00;0.00;;;;;;;;6176362;22;45240;-80
2024/02/04 13:39:17;;;;;;;;;0.00;0.00;;;;;;;;6282399;22;45743;-79
2024/02/04 13:41:43;;;;;;;;;1.00;1.00;;;;;;;;6281443;22;47578;-79
2024/02/04 13:44:08;;;;;;;;;1.00;1.00;;;;;;;;6176768;23;45426;-79
2024/02/04 13:46:33;;;;;;;;;0.00;0.00;;;;;;;;6176491;22;45370;-80
2024/02/04 13:48:59;;;;;;;;;0.00;0.00;;;;;;;;6281732;22;45363;-80
2024/02/04 13:51:24;;;;;;;;;0.00;0.00;;;;;;;;6282249;22;48124;-80
2024/02/04 13:53:49;;;;;;;;;2.00;1.00;;;;;;;;6280997;22;45441;-79
2024/02/04 13:56:14;;;;;;;;;0.00;0.00;;;;;;;;6177373;22;45559;-81
2024/02/04 13:58:39;;;;;;;;;0.75;0.75;;;;;;;;6177119;23;45449;-80
2024/02/04 14:01:05;;;;;;;;;1.00;1.00;;;;;;;;6176861;22;45663;-80
2024/02/04 14:03:31;;;;;;;;;2.00;0.00;;;;;;;;6282494;22;45665;-80
2024/02/04 14:06:12;;;;;;;;;2.50;0.75;;;;;;;;6181503;22;45391;-80
2024/02/04 14:08:38;;;;;;;;;1.00;1.00;;;;;;;;6282662;22;45243;-80
2024/02/04 14:11:03;;;;;;;;;3.00;2.00;;;;;;;;6280864;22;47052;-79
2024/02/04 14:13:29;;;;;;;;;1.50;0.75;;;;;;;;6282731;22;45365;-80
2024/02/04 14:15:54;;;;;;;;;1.00;1.00;;;;;;;;6285119;22;45351;-79
2024/02/04 14:18:20;;;;;;;;;2.00;1.00;;;;;;;;6283129;22;45418;-79
2024/02/04 14:20:48;;;;;;;;;0.25;0.25;;;;;;;;6283809;22;46762;-80
2024/02/04 14:23:13;;;;;;;;;0.33;0.00;;;;;;;;6284095;22;46274;-79
2024/02/04 14:25:39;;;;;;;;;1.00;1.00;;;;;;;;6180705;23;45313;-79
2024/02/04 14:28:04;;;;;;;;;1.00;1.00;;;;;;;;6178563;22;45362;-81
2024/02/04 14:30:30;;;;;;;;;3.33;2.00;;;;;;;;6281646;22;47180;-79
2024/02/04 14:32:56;;;;;;;;;1.67;1.67;;;;;;;;6283261;22;45304;-80
2024/02/04 14:35:21;;;;;;;;;1.00;1.00;;;;;;;;6282038;22;45390;-80
2024/02/04 14:37:46;;;;;;;;;1.00;1.00;;;;;;;;6281660;22;45302;-80
2024/02/04 14:40:12;;;;;;;;;2.33;0.67;;;;;;;;6177109;23;46558;-79
2024/02/04 14:42:37;;;;;;;;;2.67;1.33;;;;;;;;6280834;22;45040;-80
2024/02/04 14:45:03;;;;;;;;;1.25;1.25;;;;;;;;6174531;23;45436;-79